Pateros, Washington
Current Conditions -  °F | °C
As of 12:25 AM on Sunday 23 Nov 2014 (Local Time) from KOMK Reporting Station
Moderate Fog Moderate Fog  
Wind Chill: 20°   Ceiling: 200
Heat Index: 20°   Visibility: 0.25mi
Dew Point: 19°   Wind: 0mph
Humidity: 96%   Direction: NA
Pressure: 30.04"   Gusts: NA
Location:  48.05°N, 119.9°W
Report Text: KOMK 230825Z AUTO 00000KT 1/4SM FZFG VV002 M07/M07 A3004 RMK AO2 I1000 T10671072
Loading
Personal Weather Stations






























Interactive Weather Map New forecast layout! Learn more

10-Day Weather Forecast

Advertisements
Track Severe Weather on mobile